Time;durP1;ratioP1;P1;durP2;ratioP2;P2;SDS_P1;SDS_P2;PMS_P1;PMS_P2;Temp;Humidity;BMP_temperature;BMP_pressure;BME280_temperature;BME280_humidity;BME280_pressure;Samples;Min_cycle;Max_cycle;Signal;HPM_P1;HPM_P2
2023/03/01 00:01:02;;;;;;;;;;;;;;;10.98;58.53;99592.56;4978520;28;19957;-85
2023/03/01 00:03:28;;;;;;;;;;;;;;;10.99;58.74;99587.25;4962510;28;19980;-84
2023/03/01 00:05:53;;;;;;;;;;;;;;;11.00;58.54;99581.06;4996031;28;19922;-83
2023/03/01 00:08:18;;;;;;;;;;;;;;;11.01;58.47;99574.91;4978912;28;19918;-85
2023/03/01 00:10:43;;;;;;;;;;;;;;;11.02;58.58;99570.50;4962651;28;20309;-84
2023/03/01 00:13:09;;;;;;;;;;;;;;;11.02;58.42;99565.28;4996260;28;19924;-84
2023/03/01 00:15:37;;;;;;;;;;;;;;;11.02;58.67;99567.91;4995945;28;19984;-84
2023/03/01 00:18:02;;;;;;;;;;;;;;;11.02;58.42;99566.16;4995981;28;19928;-85
2023/03/01 00:20:28;;;;;;;;;;;;;;;11.02;58.71;99567.91;4995747;28;20297;-84
2023/03/01 00:22:53;;;;;;;;;;;;;;;11.01;58.33;99561.84;4978654;28;20378;-85
2023/03/01 00:25:18;;;;;;;;;;;;;;;11.01;58.74;99561.84;4995513;28;19918;-81
2023/03/01 00:27:44;;;;;;;;;;;;;;;11.01;58.39;99563.63;4978285;28;19924;-89
2023/03/01 00:30:09;;;;;;;;;;;;;;;11.00;58.68;99562.78;4978802;28;20369;-88
2023/03/01 00:32:35;;;;;;;;;;;;;;;10.99;58.42;99561.13;4978614;28;19956;-86
2023/03/01 00:35:00;;;;;;;;;;;;;;;10.98;58.38;99554.22;4977975;28;20293;-87
2023/03/01 00:37:25;;;;;;;;;;;;;;;10.99;58.41;99555.03;4978421;28;19918;-86
2023/03/01 00:39:51;;;;;;;;;;;;;;;10.98;58.63;99541.16;4995947;28;19925;-86
2023/03/01 00:42:16;;;;;;;;;;;;;;;11.00;58.40;99535.81;4995443;28;19918;-85
2023/03/01 00:44:41;;;;;;;;;;;;;;;11.00;58.31;99538.44;4978295;28;19918;-85
2023/03/01 00:47:07;;;;;;;;;;;;;;;10.99;58.33;99540.22;4978217;28;19929;-85
2023/03/01 00:49:32;;;;;;;;;;;;;;;10.98;58.30;99535.09;4977598;28;19918;-89
2023/03/01 00:51:57;;;;;;;;;;;;;;;10.97;58.27;99536.03;4978307;28;19940;-87
2023/03/01 00:54:22;;;;;;;;;;;;;;;10.98;58.66;99532.47;4977969;28;20381;-86
2023/03/01 00:56:48;;;;;;;;;;;;;;;10.97;58.35;99534.22;4994063;28;19925;-85
2023/03/01 00:59:13;;;;;;;;;;;;;;;10.97;58.29;99541.25;4977863;28;19918;-88
2023/03/01 01:01:38;;;;;;;;;;;;;;;10.96;58.35;99539.56;4995366;28;19929;-85
2023/03/01 01:04:05;;;;;;;;;;;;;;;10.95;58.23;99540.50;4994762;28;19932;-86
2023/03/01 01:06:33;;;;;;;;;;;;;;;10.94;58.24;99537.06;4977099;28;19926;-87
2023/03/01 01:08:58;;;;;;;;;;;;;;;10.95;58.27;99535.28;4961544;28;19913;-87
2023/03/01 01:11:24;;;;;;;;;;;;;;;10.93;58.23;99538.00;4961785;28;20400;-86
2023/03/01 01:13:50;;;;;;;;;;;;;;;10.93;58.26;99530.16;4961779;28;19913;-85
2023/03/01 01:16:15;;;;;;;;;;;;;;;10.93;58.41;99530.16;4977353;28;19918;-86
2023/03/01 01:18:41;;;;;;;;;;;;;;;10.93;58.34;99530.16;4994870;28;19920;-87
2023/03/01 01:21:16;;;;;;;;;;;;;;;10.93;58.38;99526.72;4994737;28;19918;-86
2023/03/01 01:23:41;;;;;;;;;;;;;;;10.94;58.20;99525.75;4977726;28;19918;-84
2023/03/01 01:26:07;;;;;;;;;;;;;;;10.93;58.41;99522.31;4994775;28;20316;-84
2023/03/01 01:28:33;;;;;;;;;;;;;;;10.94;58.45;99523.16;4977341;28;19940;-84
2023/03/01 01:30:58;;;;;;;;;;;;;;;10.94;58.34;99520.53;4977383;28;19925;-84
2023/03/01 01:33:23;;;;;;;;;;;;;;;10.95;58.38;99517.84;4977253;28;19925;-85
2023/03/01 01:35:49;;;;;;;;;;;;;;;10.97;58.54;99509.91;4994747;28;19933;-86
2023/03/01 01:38:14;;;;;;;;;;;;;;;10.97;58.63;99497.66;4994468;28;20332;-86
2023/03/01 01:40:43;;;;;;;;;;;;;;;10.98;58.24;99498.53;4994282;28;19971;-85
2023/03/01 01:43:13;;;;;;;;;;;;;;;10.99;58.40;99505.41;4961096;28;19933;-84
2023/03/01 01:45:38;;;;;;;;;;;;;;;10.99;58.19;99505.41;4976709;28;20009;-83
2023/03/01 01:48:04;;;;;;;;;;;;;;;10.99;58.19;99501.03;4977091;28;19971;-83
2023/03/01 01:50:37;;;;;;;;;;;;;;;11.00;58.29;99504.47;4976945;28;19918;-84
2023/03/01 01:53:02;;;;;;;;;;;;;;;11.02;58.24;99506.06;4994167;28;20443;-84
2023/03/01 01:55:28;;;;;;;;;;;;;;;11.01;58.34;99506.97;4976908;28;19921;-83
2023/03/01 01:57:54;;;;;;;;;;;;;;;11.02;58.26;99507.81;4976702;28;20393;-83
2023/03/01 02:00:22;;;;;;;;;;;;;;;11.03;58.27;99497.25;4960466;28;19917;-84
2023/03/01 02:02:48;;;;;;;;;;;;;;;11.04;58.27;99498.13;4976601;28;19931;-83
2023/03/01 02:05:32;;;;;;;;;;;;;;;11.04;58.16;99500.72;4960254;28;19921;-84
2023/03/01 02:07:58;;;;;;;;;;;;;;;11.04;58.34;99508.56;4993993;28;19918;-85
2023/03/01 02:10:23;;;;;;;;;;;;;;;11.04;58.10;99505.97;4994019;28;20347;-85
2023/03/01 02:12:48;;;;;;;;;;;;;;;11.03;57.98;99501.66;4976886;28;19922;-84
2023/03/01 02:15:14;;;;;;;;;;;;;;;11.03;58.07;99506.88;4993500;28;20305;-84
2023/03/01 02:17:39;;;;;;;;;;;;;;;11.02;58.09;99503.44;4993338;28;19918;-85
2023/03/01 02:20:10;;;;;;;;;;;;;;;11.03;58.37;99504.28;4976680;28;19917;-83
2023/03/01 02:22:36;;;;;;;;;;;;;;;11.04;58.06;99504.16;4976213;28;19918;-83
2023/03/01 02:25:18;;;;;;;;;;;;;;;11.03;57.96;99505.09;4976324;28;20464;-83
2023/03/01 02:27:51;;;;;;;;;;;;;;;11.03;58.24;99510.31;4993532;28;20373;-83
2023/03/01 02:30:16;;;;;;;;;;;;;;;11.04;57.98;99513.78;4960083;28;20309;-82
2023/03/01 02:32:41;;;;;;;;;;;;;;;11.03;58.17;99512.94;4993498;28;19917;-83
2023/03/01 02:35:10;;;;;;;;;;;;;;;11.04;58.23;99508.56;4993487;28;20375;-83
2023/03/01 02:37:35;;;;;;;;;;;;;;;11.04;58.34;99513.78;4959849;28;19949;-83
2023/03/01 02:40:03;;;;;;;;;;;;;;;11.03;58.21;99510.31;4976227;28;20028;-82
2023/03/01 02:42:30;;;;;;;;;;;;;;;11.02;58.15;99513.91;4960467;28;20389;-80
2023/03/01 02:44:55;;;;;;;;;;;;;;;11.00;58.07;99512.31;4976055;28;19925;-82
2023/03/01 02:47:21;;;;;;;;;;;;;;;10.99;57.99;99514.09;4959675;28;19918;-82
2023/03/01 02:49:46;;;;;;;;;;;;;;;10.98;58.08;99507.19;4949883;28;19973;-81
2023/03/01 02:52:11;;;;;;;;;;;;;;;10.96;57.97;99503.84;4956543;28;20374;-82
2023/03/01 02:54:43;;;;;;;;;;;;;;;10.97;58.00;99512.50;4973854;28;19922;-84
2023/03/01 02:57:08;;;;;;;;;;;;;;;10.95;58.31;99506.56;4973870;28;19918;-83
2023/03/01 02:59:40;;;;;;;;;;;;;;;10.95;58.23;99501.34;4973922;28;19919;-82
2023/03/01 03:02:07;;;;;;;;;;;;;;;10.94;58.11;99505.72;4973785;28;19922;-83
2023/03/01 03:04:32;;;;;;;;;;;;;;;10.93;58.42;99498.00;4941842;28;19928;-83
2023/03/01 03:06:57;;;;;;;;;;;;;;;10.92;58.10;99494.53;4975067;28;20009;-83
2023/03/01 03:09:22;;;;;;;;;;;;;;;10.94;58.11;99497.03;4956507;28;19918;-82
2023/03/01 03:11:48;;;;;;;;;;;;;;;10.92;58.04;99501.53;4940692;28;19918;-84
2023/03/01 03:14:14;;;;;;;;;;;;;;;10.91;58.08;99498.09;4973756;28;20420;-84
2023/03/01 03:16:46;;;;;;;;;;;;;;;10.91;58.16;99500.69;4940584;28;19919;-84
2023/03/01 03:19:11;;;;;;;;;;;;;;;10.89;58.22;99499.13;4956809;28;19918;-83
2023/03/01 03:21:37;;;;;;;;;;;;;;;10.88;58.36;99498.28;4956423;28;20404;-82
2023/03/01 03:24:02;;;;;;;;;;;;;;;10.87;58.10;99488.78;4956480;28;20072;-82
2023/03/01 03:26:27;;;;;;;;;;;;;;;10.86;58.41;99492.31;4956961;28;19985;-82
2023/03/01 03:28:53;;;;;;;;;;;;;;;10.85;58.48;99501.94;4974226;28;19918;-83
2023/03/01 03:31:18;;;;;;;;;;;;;;;10.86;58.31;99506.22;4977778;28;19925;-84
2023/03/01 03:33:43;;;;;;;;;;;;;;;10.86;58.16;99507.97;4960216;28;20452;-84
2023/03/01 03:36:12;;;;;;;;;;;;;;;10.85;57.96;99503.72;4960023;28;20373;-83
2023/03/01 03:38:38;;;;;;;;;;;;;;;10.82;58.07;99494.28;4959894;28;19922;-83
2023/03/01 03:41:04;;;;;;;;;;;;;;;10.81;58.28;99494.38;4959850;28;20027;-84
2023/03/01 03:43:30;;;;;;;;;;;;;;;10.81;58.42;99497.81;4944196;28;19999;-83
2023/03/01 03:45:56;;;;;;;;;;;;;;;10.80;58.28;99493.56;4959986;28;20293;-84
2023/03/01 03:48:22;;;;;;;;;;;;;;;10.80;58.10;99497.94;4960090;28;20074;-84
2023/03/01 03:50:48;;;;;;;;;;;;;;;10.78;58.16;99486.75;4959852;28;20070;-84
2023/03/01 03:53:13;;;;;;;;;;;;;;;10.77;58.34;99485.06;4943981;28;19918;-84
2023/03/01 03:55:39;;;;;;;;;;;;;;;10.76;58.17;99483.41;4943150;28;19925;-89
2023/03/01 03:58:08;;;;;;;;;;;;;;;10.74;58.36;99490.53;4943969;28;19941;-83
2023/03/01 04:00:36;;;;;;;;;;;;;;;10.73;58.20;99478.38;4959140;28;19918;-83
2023/03/01 04:03:01;;;;;;;;;;;;;;;10.72;58.25;99480.19;4976872;28;20329;-83
2023/03/01 04:05:27;;;;;;;;;;;;;;;10.71;58.21;99486.31;4959403;28;19980;-83
2023/03/01 04:08:01;;;;;;;;;;;;;;;10.71;58.50;99482.88;4959649;28;20365;-85
2023/03/01 04:10:27;;;;;;;;;;;;;;;10.71;58.39;99488.09;4961913;28;19918;-85
2023/03/01 04:12:52;;;;;;;;;;;;;;;10.71;58.58;99483.72;4946945;28;19977;-86
2023/03/01 04:15:17;;;;;;;;;;;;;;;10.73;58.42;99491.44;4959887;28;19918;-86
2023/03/01 04:17:43;;;;;;;;;;;;;;;10.71;58.55;99488.09;4976777;28;19918;-86
2023/03/01 04:20:10;;;;;;;;;;;;;;;10.71;58.52;99485.50;4958858;28;20301;-84
2023/03/01 04:22:36;;;;;;;;;;;;;;;10.72;58.42;99494.97;4943168;28;20422;-84
2023/03/01 04:25:02;;;;;;;;;;;;;;;10.71;58.51;99488.94;4976567;28;20009;-85
2023/03/01 04:27:27;;;;;;;;;;;;;;;10.70;58.19;99487.25;4976682;28;19930;-85
2023/03/01 04:29:52;;;;;;;;;;;;;;;10.71;58.44;99491.53;4976742;28;19918;-86
2023/03/01 04:32:18;;;;;;;;;;;;;;;10.71;58.45;99481.09;4959348;28;19958;-88
2023/03/01 04:34:43;;;;;;;;;;;;;;;10.72;58.28;99484.53;4958775;28;19924;-88
2023/03/01 04:37:09;;;;;;;;;;;;;;;10.73;58.43;99481.00;4942989;28;20015;-86
2023/03/01 04:39:45;;;;;;;;;;;;;;;10.73;58.45;99488.84;4959336;28;20435;-85
2023/03/01 04:42:10;;;;;;;;;;;;;;;10.73;58.32;99484.44;4943227;28;19977;-83
2023/03/01 04:44:35;;;;;;;;;;;;;;;10.74;58.27;99480.06;4958866;28;19922;-84
2023/03/01 04:47:01;;;;;;;;;;;;;;;10.72;58.50;99480.19;4942226;28;20370;-80
2023/03/01 04:49:26;;;;;;;;;;;;;;;10.73;58.28;99489.66;4975740;28;19925;-79
2023/03/01 04:51:51;;;;;;;;;;;;;;;10.74;58.27;99482.69;4943196;28;19922;-83
2023/03/01 04:54:16;;;;;;;;;;;;;;;10.79;63.30;99486.66;4958392;28;20282;-79
2023/03/01 04:56:42;;;;;;;;;;;;;;;11.00;67.24;99476.56;4942390;28;19969;-79
2023/03/01 04:59:09;;;;;;;;;;;;;;;11.08;66.69;99464.78;4942400;28;20014;-74
2023/03/01 05:01:35;;;;;;;;;;;;;;;11.08;65.28;99476.06;4975659;28;19922;-75
2023/03/01 05:04:02;;;;;;;;;;;;;;;11.23;69.20;99485.50;4961466;28;19926;-74
2023/03/01 05:06:28;;;;;;;;;;;;;;;11.33;70.30;99487.50;4958973;28;19922;-74
2023/03/01 05:08:53;;;;;;;;;;;;;;;11.33;67.41;99490.94;4942293;28;20435;-75
2023/03/01 05:11:18;;;;;;;;;;;;;;;11.33;66.58;99490.94;4958584;28;20282;-74
2023/03/01 05:13:44;;;;;;;;;;;;;;;11.32;65.67;99486.66;4957940;28;19918;-74
2023/03/01 05:16:12;;;;;;;;;;;;;;;11.29;65.50;99494.72;4958595;28;19918;-88
2023/03/01 05:18:37;;;;;;;;;;;;;;;11.26;65.41;99486.22;4958002;28;20365;-72
2023/03/01 05:21:03;;;;;;;;;;;;;;;11.23;65.04;99485.50;4975553;28;20010;-78
2023/03/01 05:23:29;;;;;;;;;;;;;;;11.21;64.87;99484.75;4941991;28;19918;-83
2023/03/01 05:25:57;;;;;;;;;;;;;;;11.20;64.82;99490.09;4958010;28;19940;-80
2023/03/01 05:28:22;;;;;;;;;;;;;;;11.16;64.45;99484.22;4957130;28;20016;-80
2023/03/01 05:30:47;;;;;;;;;;;;;;;11.14;64.22;99487.88;4941800;28;20017;-79
2023/03/01 05:33:16;;;;;;;;;;;;;;;11.11;64.07;99491.53;4957505;28;19940;-81
2023/03/01 05:35:42;;;;;;;;;;;;;;;11.10;63.86;99489.88;4941737;28;19966;-79
2023/03/01 05:38:07;;;;;;;;;;;;;;;11.09;63.76;99490.81;4943715;28;20369;-78
2023/03/01 05:40:33;;;;;;;;;;;;;;;11.07;63.73;99492.69;4979965;28;19980;-83
2023/03/01 05:42:58;;;;;;;;;;;;;;;11.08;63.74;99493.53;4996421;28;20391;-84
2023/03/01 05:45:24;;;;;;;;;;;;;;;11.07;63.30;99490.06;4980074;28;19918;-79
2023/03/01 05:47:49;;;;;;;;;;;;;;;11.07;63.22;99491.84;4996178;28;19917;-78
2023/03/01 05:50:21;;;;;;;;;;;;;;;11.08;63.20;99491.72;4996212;28;19929;-78
2023/03/01 05:52:48;;;;;;;;;;;;;;;11.08;62.94;99491.72;4996093;28;19921;-78
2023/03/01 05:55:13;;;;;;;;;;;;;;;11.08;63.08;99491.72;4996427;28;19996;-77
2023/03/01 05:57:38;;;;;;;;;;;;;;;11.09;62.68;99495.19;4996380;28;19917;-74
2023/03/01 06:00:06;;;;;;;;;;;;;;;11.08;62.82;99503.97;5013394;28;19917;-74
2023/03/01 06:02:31;;;;;;;;;;;;;;;11.10;62.42;99504.69;5013571;28;19922;-74
2023/03/01 06:04:56;;;;;;;;;;;;;;;11.10;62.53;99504.69;4996257;28;19933;-79
2023/03/01 06:07:22;;;;;;;;;;;;;;;11.11;62.61;99507.22;4967829;28;19919;-80
2023/03/01 06:09:47;;;;;;;;;;;;;;;11.12;62.41;99505.44;4972274;28;19922;-80
2023/03/01 06:12:12;;;;;;;;;;;;;;;11.13;62.17;99496.66;4973379;28;20060;-79
2023/03/01 06:14:38;;;;;;;;;;;;;;;11.15;62.18;99494.78;4955903;28;20374;-80
2023/03/01 06:17:03;;;;;;;;;;;;;;;11.15;62.04;99487.78;4956008;28;19977;-80
2023/03/01 06:19:28;;;;;;;;;;;;;;;11.19;61.84;99488.41;4956007;28;19918;-79
2023/03/01 06:21:54;;;;;;;;;;;;;;;11.19;61.83;99496.25;4972100;28;19918;-79
2023/03/01 06:24:19;;;;;;;;;;;;;;;11.20;61.88;99514.44;4973435;28;19925;-79
2023/03/01 06:26:44;;;;;;;;;;;;;;;11.20;61.73;99516.22;4973647;28;19918;-79
2023/03/01 06:29:09;;;;;;;;;;;;;;;11.20;61.66;99517.06;4973634;28;19922;-80
2023/03/01 06:31:35;;;;;;;;;;;;;;;11.21;61.62;99523.09;4973346;28;20451;-80
2023/03/01 06:34:00;;;;;;;;;;;;;;;11.22;61.47;99524.78;4956627;28;19925;-80
2023/03/01 06:36:25;;;;;;;;;;;;;;;11.21;61.36;99523.97;4972994;28;19965;-80
2023/03/01 06:38:51;;;;;;;;;;;;;;;11.23;61.43;99526.47;4957121;28;20346;-79
2023/03/01 06:41:16;;;;;;;;;;;;;;;11.23;61.27;99522.06;4956871;28;20465;-80
2023/03/01 06:43:41;;;;;;;;;;;;;;;11.26;61.36;99523.66;4972873;28;19918;-79
2023/03/01 06:46:07;;;;;;;;;;;;;;;11.27;60.99;99516.66;4956841;28;20005;-80
2023/03/01 06:48:33;;;;;;;;;;;;;;;11.29;60.90;99510.38;4972816;28;20069;-80
2023/03/01 06:51:00;;;;;;;;;;;;;;;11.31;60.81;99510.28;4973047;28;20309;-82
2023/03/01 06:53:26;;;;;;;;;;;;;;;11.30;60.66;99512.03;4973603;28;19926;-80
2023/03/01 06:55:57;;;;;;;;;;;;;;;11.29;61.01;99513.00;4973048;28;19918;-80
2023/03/01 06:58:22;;;;;;;;;;;;;;;11.32;60.99;99509.34;4973572;28;19976;-80
2023/03/01 07:00:48;;;;;;;;;;;;;;;11.32;60.47;99504.09;4956959;28;20368;-82
2023/03/01 07:03:13;;;;;;;;;;;;;;;11.33;60.33;99498.78;4972664;28;19926;-80
2023/03/01 07:05:38;;;;;;;;;;;;;;;11.32;60.58;99504.97;4977628;28;19918;-82
2023/03/01 07:08:04;;;;;;;;;;;;;;;11.33;60.55;99505.78;4976868;28;20443;-81
2023/03/01 07:10:29;;;;;;;;;;;;;;;11.37;60.13;99494.19;4977975;28;19924;-81
2023/03/01 07:12:55;;;;;;;;;;;;;;;11.39;60.23;99492.31;4976613;28;19940;-80
2023/03/01 07:15:21;;;;;;;;;;;;;;;11.43;60.14;99496.38;4977461;28;20374;-80
2023/03/01 07:17:47;;;;;;;;;;;;;;;11.48;60.08;99498.66;4976967;28;19972;-83
2023/03/01 07:20:13;;;;;;;;;;;;;;;11.50;59.99;99510.72;4961091;28;19925;-81
2023/03/01 07:22:39;;;;;;;;;;;;;;;11.52;60.02;99510.59;4977489;28;19918;-81
2023/03/01 07:25:05;;;;;;;;;;;;;;;11.55;59.68;99515.63;4977168;28;20419;-80
2023/03/01 07:27:30;;;;;;;;;;;;;;;11.58;59.63;99510.19;4977019;28;19965;-80
2023/03/01 07:29:55;;;;;;;;;;;;;;;11.60;59.21;99510.91;4960813;28;20009;-81
2023/03/01 07:32:21;;;;;;;;;;;;;;;11.61;59.16;99509.13;4960490;28;19918;-80
2023/03/01 07:34:46;;;;;;;;;;;;;;;11.62;59.21;99514.25;4960356;28;19922;-81
2023/03/01 07:37:11;;;;;;;;;;;;;;;11.66;59.23;99515.72;4960072;28;19922;-81
2023/03/01 07:39:37;;;;;;;;;;;;;;;11.66;59.04;99507.88;4976781;28;19929;-80
2023/03/01 07:42:02;;;;;;;;;;;;;;;11.69;59.08;99510.28;4976359;28;20400;-81
2023/03/01 07:44:28;;;;;;;;;;;;;;;11.69;59.02;99509.47;4960628;28;19918;-81
2023/03/01 07:46:56;;;;;;;;;;;;;;;11.70;58.86;99505.88;4960194;28;19925;-80
2023/03/01 07:49:21;;;;;;;;;;;;;;;11.68;58.98;99516.44;4960031;28;19918;-80
2023/03/01 07:51:46;;;;;;;;;;;;;;;11.67;59.02;99516.56;4975817;28;19918;-80
2023/03/01 07:54:12;;;;;;;;;;;;;;;11.64;58.72;99499.31;4959431;28;19918;-79
2023/03/01 07:56:37;;;;;;;;;;;;;;;11.63;58.81;99507.28;4959635;28;19942;-80
2023/03/01 07:59:02;;;;;;;;;;;;;;;11.60;58.77;99510.91;4976705;28;19964;-81
2023/03/01 08:01:28;;;;;;;;;;;;;;;11.56;58.45;99510.28;4960129;28;20020;-81
2023/03/01 08:03:53;;;;;;;;;;;;;;;11.52;58.41;99511.44;4975749;28;20307;-80
2023/03/01 08:06:18;;;;;;;;;;;;;;;11.51;58.45;99512.41;4977152;28;19925;-79
2023/03/01 08:08:44;;;;;;;;;;;;;;;11.51;58.05;99511.53;4959668;28;19918;-81
2023/03/01 08:11:10;;;;;;;;;;;;;;;11.53;58.29;99514.91;4975768;28;20005;-83
2023/03/01 08:13:35;;;;;;;;;;;;;;;11.53;58.12;99507.06;4975992;28;19918;-78
2023/03/01 08:16:02;;;;;;;;;;;;;;;11.53;58.23;99512.28;4958149;28;19917;-78
2023/03/01 08:18:27;;;;;;;;;;;;;;;11.56;57.76;99509.47;4959366;28;20016;-78
2023/03/01 08:20:52;;;;;;;;;;;;;;;11.55;57.95;99507.78;4959472;28;20417;-79
2023/03/01 08:23:17;;;;;;;;;;;;;;;11.56;57.96;99510.28;4959568;28;20377;-79
2023/03/01 08:25:43;;;;;;;;;;;;;;;11.54;58.04;99506.09;4975322;28;19925;-78
2023/03/01 08:28:08;;;;;;;;;;;;;;;11.54;57.89;99506.97;4975325;28;20013;-78
2023/03/01 08:30:34;;;;;;;;;;;;;;;11.54;58.06;99506.97;4959910;28;19918;-79
2023/03/01 08:32:59;;;;;;;;;;;;;;;11.54;57.87;99503.50;4959349;28;20338;-78
2023/03/01 08:35:24;;;;;;;;;;;;;;;11.56;57.78;99501.63;4959150;28;19918;-80
2023/03/01 08:37:49;;;;;;;;;;;;;;;11.60;57.98;99500.47;4959414;28;19918;-79
2023/03/01 08:40:15;;;;;;;;;;;;;;;11.63;57.82;99495.03;4959874;28;19976;-79
2023/03/01 08:42:42;;;;;;;;;;;;;;;11.70;57.58;99495.44;4958939;28;19922;-79
2023/03/01 08:45:08;;;;;;;;;;;;;;;11.74;57.29;99500.34;4975800;28;20312;-78
2023/03/01 08:47:33;;;;;;;;;;;;;;;11.76;57.34;99501.09;4975925;28;19955;-79
2023/03/01 08:49:59;;;;;;;;;;;;;;;11.81;57.35;99500.75;4959126;28;19918;-80
2023/03/01 08:52:24;;;;;;;;;;;;;;;11.82;57.01;99499.81;4975804;28;19918;-79
2023/03/01 08:54:50;;;;;;;;;;;;;;;11.86;57.04;99505.66;4976790;28;19918;-81
2023/03/01 08:57:15;;;;;;;;;;;;;;;11.87;57.05;99502.13;4959649;28;20401;-79
2023/03/01 08:59:41;;;;;;;;;;;;;;;11.86;57.03;99498.69;4960230;28;20370;-79
2023/03/01 09:02:10;;;;;;;;;;;;;;;11.91;56.88;99499.19;4975001;28;20021;-78
2023/03/01 09:04:35;;;;;;;;;;;;;;;11.97;56.75;99497.97;4975078;28;19928;-78
2023/03/01 09:07:01;;;;;;;;;;;;;;;11.98;56.40;99501.41;4959440;28;19954;-83
2023/03/01 09:09:26;;;;;;;;;;;;;;;12.01;56.38;99502.03;4959009;28;19918;-79
2023/03/01 09:11:51;;;;;;;;;;;;;;;12.03;56.39;99500.13;4975352;28;19972;-78
2023/03/01 09:14:17;;;;;;;;;;;;;;;12.05;56.42;99498.25;4959063;28;19923;-78
2023/03/01 09:16:42;;;;;;;;;;;;;;;12.05;56.09;99497.41;4958634;28;20368;-78
2023/03/01 09:19:07;;;;;;;;;;;;;;;12.04;56.46;99499.19;4975230;28;19922;-79
2023/03/01 09:21:33;;;;;;;;;;;;;;;12.04;56.06;99501.81;4959029;28;19918;-78
2023/03/01 09:23:58;;;;;;;;;;;;;;;12.03;56.00;99494.06;4958716;28;19918;-80
2023/03/01 09:26:23;;;;;;;;;;;;;;;12.01;56.18;99498.56;4975175;28;19925;-80
2023/03/01 09:28:50;;;;;;;;;;;;;;;12.00;56.01;99489.03;4958700;28;20377;-78
2023/03/01 09:31:15;;;;;;;;;;;;;;;12.02;56.39;99495.84;4974526;28;19918;-80
2023/03/01 09:33:41;;;;;;;;;;;;;;;12.00;56.10;99491.66;4974412;28;19918;-80
2023/03/01 09:36:07;;;;;;;;;;;;;;;12.00;55.99;99486.44;4974226;28;19918;-79
2023/03/01 09:38:32;;;;;;;;;;;;;;;12.00;55.84;99489.03;4974548;28;20010;-78
2023/03/01 09:40:58;;;;;;;;;;;;;;;11.98;56.27;99488.31;4974208;28;19958;-79
2023/03/01 09:43:26;;;;;;;;;;;;;;;12.00;56.00;99494.28;4974568;28;19925;-78
2023/03/01 09:45:52;;;;;;;;;;;;;;;11.97;56.04;99487.50;4974607;28;19919;-79
2023/03/01 09:48:24;;;;;;;;;;;;;;;11.98;56.17;99488.31;4974211;28;19929;-79
2023/03/01 09:50:49;;;;;;;;;;;;;;;11.99;56.22;99488.22;4973853;28;20381;-80
2023/03/01 09:53:21;;;;;;;;;;;;;;;11.98;56.36;99485.72;4973942;28;19925;-79
2023/03/01 09:55:50;;;;;;;;;;;;;;;11.99;56.29;99487.38;4973714;28;19922;-79
2023/03/01 09:58:27;;;;;;;;;;;;;;;11.98;56.44;99493.56;4974023;28;19925;-80
2023/03/01 10:00:53;;;;;;;;;;;;;;;11.92;56.32;99482.59;4973617;28;20349;-79
2023/03/01 10:03:27;;;;;;;;;;;;;;;11.91;56.36;99474.81;4957597;28;19984;-79
2023/03/01 10:05:57;;;;;;;;;;;;;;;11.91;56.15;99480.03;4973136;28;19918;-79
2023/03/01 10:08:26;;;;;;;;;;;;;;;11.89;56.25;99476.69;4973546;28;19918;-79
2023/03/01 10:10:52;;;;;;;;;;;;;;;11.90;56.50;99473.13;4973675;28;19925;-80
2023/03/01 10:13:26;;;;;;;;;;;;;;;11.88;56.16;99469.78;4973865;28;19922;-80
2023/03/01 10:16:01;;;;;;;;;;;;;;;11.86;56.05;99476.88;4973689;28;19918;-79
2023/03/01 10:18:31;;;;;;;;;;;;;;;11.82;56.45;99468.44;4973579;28;19922;-80
2023/03/01 10:21:00;;;;;;;;;;;;;;;11.82;56.42;99475.44;4973484;28;19918;-79
2023/03/01 10:23:27;;;;;;;;;;;;;;;11.79;56.55;99471.25;4973788;28;19924;-81
2023/03/01 10:26:11;;;;;;;;;;;;;;;11.75;56.41;99467.19;4973394;28;20408;-79
2023/03/01 10:28:40;;;;;;;;;;;;;;;11.73;56.66;99458.59;4973741;28;19925;-80
2023/03/01 10:31:06;;;;;;;;;;;;;;;11.71;56.77;99455.25;4975107;28;19919;-81
2023/03/01 10:33:33;;;;;;;;;;;;;;;11.71;56.48;99461.31;4973272;28;20005;-79
2023/03/01 10:35:58;;;;;;;;;;;;;;;11.71;56.70;99458.72;4973469;28;19929;-80
2023/03/01 10:38:23;;;;;;;;;;;;;;;11.71;56.52;99457.88;4956633;28;20304;-80
2023/03/01 10:40:52;;;;;;;;;;;;;;;11.71;56.58;99450.84;4957392;28;19918;-78
2023/03/01 10:43:17;;;;;;;;;;;;;;;11.68;56.82;99443.22;4972786;28;19925;-80
2023/03/01 10:45:43;;;;;;;;;;;;;;;11.65;56.77;99443.44;4973418;28;19918;-83
2023/03/01 10:48:08;;;;;;;;;;;;;;;11.63;56.71;99440.09;4973424;28;19926;-78
2023/03/01 10:50:33;;;;;;;;;;;;;;;11.64;56.68;99438.31;4974341;28;20302;-80
2023/03/01 10:53:03;;;;;;;;;;;;;;;11.64;56.64;99435.69;4956913;28;19976;-79
2023/03/01 10:55:35;;;;;;;;;;;;;;;11.63;56.63;99440.09;4973671;28;19941;-81
2023/03/01 10:58:19;;;;;;;;;;;;;;;11.62;56.77;99430.56;4973608;28;19984;-81
2023/03/01 11:00:46;;;;;;;;;;;;;;;11.61;56.62;99439.38;4973257;28;19918;-79
2023/03/01 11:03:12;;;;;;;;;;;;;;;11.61;56.56;99433.28;4972653;28;19926;-80
2023/03/01 11:05:38;;;;;;;;;;;;;;;11.61;56.83;99428.06;4972704;28;19922;-81
2023/03/01 11:08:03;;;;;;;;;;;;;;;11.61;56.97;99428.06;4956477;28;19918;-81
2023/03/01 11:10:28;;;;;;;;;;;;;;;11.62;56.63;99427.97;4956746;28;19919;-79
2023/03/01 11:12:54;;;;;;;;;;;;;;;11.63;56.89;99426.19;4973187;28;19992;-79
2023/03/01 11:15:20;;;;;;;;;;;;;;;11.62;56.71;99425.34;4956928;28;19922;-78
2023/03/01 11:17:45;;;;;;;;;;;;;;;11.63;56.77;99420.97;4956539;28;20033;-81
2023/03/01 11:20:14;;;;;;;;;;;;;;;11.64;56.89;99415.63;4957116;28;20409;-79
2023/03/01 11:22:42;;;;;;;;;;;;;;;11.63;56.48;99413.94;4972720;28;20305;-78
2023/03/01 11:25:08;;;;;;;;;;;;;;;11.64;56.28;99418.25;4972497;28;19922;-80
2023/03/01 11:27:38;;;;;;;;;;;;;;;11.64;56.61;99412.16;4972700;28;20396;-78
2023/03/01 11:30:09;;;;;;;;;;;;;;;11.65;56.75;99411.22;4973171;28;19961;-82
2023/03/01 11:32:35;;;;;;;;;;;;;;;11.64;56.76;99415.63;4973033;28;19941;-80
2023/03/01 11:35:08;;;;;;;;;;;;;;;11.65;56.48;99417.28;4956543;28;19970;-78
2023/03/01 11:37:36;;;;;;;;;;;;;;;11.64;56.87;99407.78;4972593;28;19977;-78
2023/03/01 11:40:02;;;;;;;;;;;;;;;11.65;56.61;99409.44;4972553;28;19918;-81
2023/03/01 11:42:29;;;;;;;;;;;;;;;11.65;56.77;99408.63;4972329;28;19922;-80
2023/03/01 11:44:55;;;;;;;;;;;;;;;11.64;56.44;99401.69;4972425;28;19988;-80
2023/03/01 11:47:38;;;;;;;;;;;;;;;11.65;56.85;99400.78;4972351;28;20400;-78
2023/03/01 11:50:14;;;;;;;;;;;;;;;11.63;56.53;99400.06;4973406;28;20429;-79
2023/03/01 11:52:52;;;;;;;;;;;;;;;11.64;56.51;99388.63;4976109;28;19919;-80
2023/03/01 11:55:42;;;;;;;;;;;;;;;11.65;57.01;99392.94;4976016;28;20412;-80
2023/03/01 11:58:23;;;;;;;;;;;;;;;11.65;56.74;99385.09;4976026;28;19968;-79
2023/03/01 12:00:48;;;;;;;;;;;;;;;11.64;57.04;99383.41;4977332;28;19922;-79
2023/03/01 12:03:26;;;;;;;;;;;;;;;11.63;56.89;99379.13;4977149;28;19926;-79
2023/03/01 12:06:05;;;;;;;;;;;;;;;11.64;57.06;99375.56;4975785;28;19954;-79
2023/03/01 12:08:33;;;;;;;;;;;;;;;11.62;56.95;99370.44;4976050;28;20325;-80
2023/03/01 12:11:17;;;;;;;;;;;;;;;11.63;56.77;99369.50;4976023;28;20377;-78
2023/03/01 12:13:51;;;;;;;;;;;;;;;11.63;56.85;99366.88;4977646;28;20301;-77
2023/03/01 12:16:22;;;;;;;;;;;;;;;11.62;56.79;99369.59;4976144;28;20322;-79
2023/03/01 12:19:06;;;;;;;;;;;;;;;11.62;56.64;99370.44;4975641;28;19922;-79
2023/03/01 12:21:50;;;;;;;;;;;;;;;11.62;56.82;99367.81;4977207;28;20302;-80
2023/03/01 12:24:22;;;;;;;;;;;;;;;11.65;56.82;99370.22;4976001;28;19954;-78
2023/03/01 12:26:53;;;;;;;;;;;;;;;11.63;56.75;99361.66;4975392;28;19918;-79
2023/03/01 12:29:21;;;;;;;;;;;;;;;11.64;56.97;99363.34;4975657;28;19945;-80
2023/03/01 12:32:02;;;;;;;;;;;;;;;11.66;57.00;99360.59;4975529;28;20473;-78
2023/03/01 12:34:27;;;;;;;;;;;;;;;11.66;57.03;99363.22;4975279;28;19929;-80
2023/03/01 12:36:59;;;;;;;;;;;;;;;11.65;57.07;99358.94;4975527;28;19918;-79
2023/03/01 12:39:43;;;;;;;;;;;;;;;11.62;56.92;99365.19;4976638;28;19924;-79
2023/03/01 12:42:34;;;;;;;;;;;;;;;11.65;57.14;99369.38;4975251;28;19922;-80
2023/03/01 12:45:12;;;;;;;;;;;;;;;11.63;57.08;99366.88;4960950;28;19926;-79
2023/03/01 12:47:57;;;;;;;;;;;;;;;11.61;56.74;99365.31;4975157;28;19919;-80